createdAt,value
2019-04-05T00:01:06.863Z,100.00
2019-04-05T00:03:35.501Z,100.00
2019-04-05T00:06:04.239Z,100.00
2019-04-05T00:08:32.903Z,100.00
2019-04-05T00:11:00.927Z,100.00
2019-04-05T00:13:29.566Z,100.00
2019-04-05T00:15:58.251Z,100.00
2019-04-05T00:18:26.979Z,100.00
2019-04-05T00:20:55.632Z,100.00
2019-04-05T00:23:24.292Z,100.00
2019-04-05T00:25:53.491Z,100.00
2019-04-05T00:28:22.135Z,100.00
2019-04-05T00:30:50.872Z,100.00
2019-04-05T00:33:19.507Z,100.00
2019-04-05T00:35:48.134Z,100.00
2019-04-05T00:38:17.178Z,100.00
2019-04-05T00:40:45.830Z,100.00
2019-04-05T00:43:14.554Z,100.00
2019-04-05T00:45:43.224Z,100.00
2019-04-05T00:48:11.857Z,100.00
2019-04-05T00:50:40.582Z,100.00
2019-04-05T00:53:09.284Z,100.00
2019-04-05T00:55:37.996Z,100.00
2019-04-05T00:58:06.668Z,100.00
2019-04-05T01:00:35.314Z,100.00
2019-04-05T01:03:04.332Z,100.00
2019-04-05T01:05:33.174Z,100.00
2019-04-05T01:08:01.832Z,100.00
2019-04-05T01:10:30.575Z,100.00
2019-04-05T01:12:59.703Z,100.00
2019-04-05T01:15:40.192Z,100.00
2019-04-05T01:17:59.763Z,100.00
2019-04-05T01:20:30.045Z,100.00
2019-04-05T01:22:58.731Z,100.00
2019-04-05T01:25:27.487Z,100.00
2019-04-05T01:27:56.231Z,100.00
2019-04-05T01:30:24.861Z,100.00
2019-04-05T01:32:53.527Z,100.00
2019-04-05T01:35:22.174Z,100.00
2019-04-05T01:37:50.838Z,100.00
2019-04-05T01:40:19.493Z,100.00
2019-04-05T01:42:48.222Z,100.00
2019-04-05T01:45:16.909Z,100.00
2019-04-05T01:47:46.054Z,100.00
2019-04-05T01:50:14.759Z,100.00
2019-04-05T01:52:43.428Z,100.00
2019-04-05T01:55:12.144Z,100.00
2019-04-05T01:57:40.851Z,100.00
2019-04-05T02:00:10.999Z,100.00
2019-04-05T02:02:39.736Z,100.00
2019-04-05T02:05:08.492Z,100.00
2019-04-05T02:07:37.248Z,100.00
2019-04-05T02:10:06.751Z,100.00
2019-04-05T02:12:36.003Z,100.00
2019-04-05T02:15:05.127Z,100.00
2019-04-05T02:17:35.882Z,100.00
2019-04-05T02:20:04.685Z,100.00
2019-04-05T02:22:35.335Z,100.00
2019-04-05T02:25:04.087Z,100.00
2019-04-05T02:27:33.839Z,100.00
2019-04-05T02:30:02.558Z,100.00
2019-04-05T02:32:31.532Z,100.00
2019-04-05T02:35:00.303Z,100.00
2019-04-05T02:37:28.935Z,100.00
2019-04-05T02:39:57.972Z,100.00
2019-04-05T02:42:26.613Z,100.00
2019-04-05T02:44:55.286Z,100.00
2019-04-05T02:47:24.049Z,100.00
2019-04-05T02:49:52.726Z,100.00
2019-04-05T02:52:21.442Z,100.00
2019-04-05T02:54:50.205Z,100.00
2019-04-05T02:57:18.961Z,100.00
2019-04-05T02:59:48.126Z,100.00
2019-04-05T03:02:16.822Z,100.00
2019-04-05T03:04:46.793Z,100.00
2019-04-05T03:07:15.425Z,100.00
2019-04-05T03:09:44.102Z,100.00
2019-04-05T03:12:12.960Z,100.00
2019-04-05T03:14:41.679Z,100.00
2019-04-05T03:17:10.373Z,100.00
2019-04-05T03:19:39.074Z,100.00
2019-04-05T03:22:08.580Z,100.00
2019-04-05T03:24:38.033Z,100.00
2019-04-05T03:27:11.854Z,100.00
2019-04-05T03:29:40.540Z,100.00
2019-04-05T03:32:09.532Z,100.00
2019-04-05T03:34:38.227Z,100.00
2019-04-05T03:37:06.856Z,100.00
2019-04-05T03:39:35.533Z,100.00
2019-04-05T03:42:04.257Z,100.00
2019-04-05T03:44:34.362Z,100.00
2019-04-05T03:47:03.010Z,100.00
2019-04-05T03:49:31.819Z,100.00
2019-04-05T03:52:00.490Z,100.00
2019-04-05T03:54:29.119Z,100.00
2019-04-05T03:56:57.803Z,100.00
2019-04-05T03:59:26.492Z,100.00
2019-04-05T04:01:55.112Z,100.00
2019-04-05T04:04:23.786Z,100.00
2019-04-05T04:06:52.472Z,100.00
2019-04-05T04:09:21.109Z,100.00
2019-04-05T04:11:49.779Z,100.00
2019-04-05T04:14:18.458Z,100.00
2019-04-05T04:16:47.089Z,100.00
2019-04-05T04:19:15.754Z,100.00
2019-04-05T04:21:49.669Z,100.00
2019-04-05T04:24:18.645Z,100.00
2019-04-05T04:26:47.292Z,100.00
2019-04-05T04:29:16.032Z,100.00
2019-04-05T04:31:44.669Z,100.00
2019-04-05T04:34:13.315Z,100.00
2019-04-05T04:36:41.968Z,100.00
2019-04-05T04:39:10.640Z,100.00
2019-04-05T04:41:39.274Z,100.00
2019-04-05T04:44:08.091Z,100.00
2019-04-05T04:46:36.751Z,100.00
2019-04-05T04:49:05.492Z,100.00
2019-04-05T04:51:34.304Z,100.00
2019-04-05T04:54:03.082Z,100.00
2019-04-05T04:56:32.290Z,100.00
2019-04-05T04:59:01.046Z,100.00
2019-04-05T05:01:29.721Z,100.00
2019-04-05T05:03:58.854Z,100.00
2019-04-05T05:06:27.516Z,100.00
2019-04-05T05:08:57.259Z,100.00
2019-04-05T05:11:26.085Z,100.00
2019-04-05T05:13:55.088Z,100.00
2019-04-05T05:16:23.737Z,100.00
2019-04-05T05:18:52.422Z,100.00
2019-04-05T05:21:21.177Z,100.00
2019-04-05T05:23:49.897Z,100.00
2019-04-05T05:26:19.452Z,100.00
2019-04-05T05:28:48.114Z,100.00
2019-04-05T05:31:16.765Z,100.00
2019-04-05T05:33:45.503Z,100.00
2019-04-05T05:36:14.172Z,100.00
2019-04-05T05:38:42.803Z,100.00
2019-04-05T05:41:11.459Z,100.00
2019-04-05T05:43:40.113Z,100.00
2019-04-05T05:46:09.725Z,100.00
2019-04-05T05:48:38.435Z,100.00
2019-04-05T05:51:07.099Z,100.00
2019-04-05T05:53:35.735Z,100.00
2019-04-05T05:56:04.446Z,100.00
2019-04-05T05:58:33.099Z,100.00
2019-04-05T06:01:02.630Z,100.00
2019-04-05T06:03:31.271Z,100.00
2019-04-05T06:06:04.491Z,100.00
2019-04-05T06:08:30.294Z,100.00
2019-04-05T06:10:58.930Z,100.00
2019-04-05T06:13:27.612Z,100.00
2019-04-05T06:15:56.300Z,100.00
2019-04-05T06:18:24.984Z,100.00
2019-04-05T06:20:53.752Z,100.00
2019-04-05T06:23:33.120Z,100.00
2019-04-05T06:25:52.832Z,100.00
2019-04-05T06:28:21.517Z,100.00
2019-04-05T06:30:50.523Z,100.00
2019-04-05T06:33:30.858Z,100.00
2019-04-05T06:35:49.556Z,100.00
2019-04-05T06:38:18.535Z,100.00
2019-04-05T06:40:47.534Z,100.00
2019-04-05T06:43:16.171Z,100.00
2019-04-05T06:45:44.928Z,100.00
2019-04-05T06:48:19.438Z,100.00
2019-04-05T06:50:47.155Z,100.00
2019-04-05T06:53:14.663Z,100.00
2019-04-05T06:55:43.383Z,100.00
2019-04-05T06:58:19.703Z,100.00
2019-04-05T07:00:56.074Z,100.00
2019-04-05T07:03:13.719Z,100.00
2019-04-05T07:05:42.507Z,100.00
2019-04-05T07:08:11.476Z,100.00
2019-04-05T07:10:40.138Z,100.00
2019-04-05T07:13:08.875Z,100.00
2019-04-05T07:15:38.022Z,100.00
2019-04-05T07:18:06.678Z,100.00
2019-04-05T07:20:35.327Z,100.00
2019-04-05T07:23:04.080Z,100.00
2019-04-05T07:25:33.040Z,100.00
2019-04-05T07:28:02.592Z,100.00
2019-04-05T07:30:32.652Z,100.00
2019-04-05T07:33:01.496Z,100.00
2019-04-05T07:35:33.550Z,100.00
2019-04-05T07:38:00.592Z,100.00
2019-04-05T07:40:29.235Z,100.00
2019-04-05T07:42:58.339Z,100.00
2019-04-05T07:45:26.991Z,100.00
2019-04-05T07:47:55.919Z,100.00
2019-04-05T07:50:24.563Z,100.00
2019-04-05T07:52:53.291Z,100.00
2019-04-05T07:55:22.903Z,100.00
2019-04-05T07:57:51.623Z,100.00
2019-04-05T08:00:38.187Z,100.00
2019-04-05T08:03:06.843Z,100.00
2019-04-05T08:05:35.546Z,100.00
2019-04-05T08:08:04.667Z,100.00
2019-04-05T08:10:34.396Z,100.00
2019-04-05T08:13:03.412Z,100.00
2019-04-05T08:15:32.486Z,100.00
2019-04-05T08:18:01.134Z,100.00
2019-04-05T08:20:29.779Z,100.00
2019-04-05T08:22:58.435Z,100.00
2019-04-05T08:25:27.088Z,100.00
2019-04-05T08:27:55.734Z,100.00
2019-04-05T08:30:24.399Z,100.00
2019-04-05T08:32:53.052Z,100.00
2019-04-05T08:35:21.816Z,100.00
2019-04-05T08:37:50.495Z,100.00
2019-04-05T08:40:19.152Z,100.00
2019-04-05T08:42:47.819Z,100.00
2019-04-05T08:45:16.476Z,100.00
2019-04-05T08:47:45.128Z,100.00
2019-04-05T08:50:13.807Z,100.00
2019-04-05T08:52:42.535Z,100.00
2019-04-05T08:55:11.247Z,100.00
2019-04-05T08:57:39.924Z,100.00
2019-04-05T09:00:09.679Z,100.00
2019-04-05T09:02:38.439Z,100.00
2019-04-05T09:05:07.163Z,100.00
2019-04-05T09:07:35.920Z,100.00
2019-04-05T09:10:04.639Z,100.00
2019-04-05T09:12:34.567Z,100.00
2019-04-05T09:15:03.416Z,100.00
2019-04-05T09:17:32.091Z,100.00
2019-04-05T09:20:00.787Z,100.00
2019-04-05T09:22:30.634Z,100.00
2019-04-05T09:24:59.270Z,100.00
2019-04-05T09:27:27.905Z,100.00
2019-04-05T09:29:57.570Z,100.00
2019-04-05T09:32:26.214Z,100.00
2019-04-05T09:34:54.858Z,100.00
2019-04-05T09:37:23.534Z,100.00
2019-04-05T09:39:52.176Z,100.00
2019-04-05T09:42:21.209Z,100.00
2019-04-05T09:44:49.867Z,100.00
2019-04-05T09:47:18.578Z,100.00
2019-04-05T09:49:47.298Z,100.00
2019-04-05T09:52:15.951Z,99.31
2019-04-05T09:54:44.595Z,95.96
2019-04-05T09:57:13.323Z,94.49
2019-04-05T09:59:42.203Z,92.39
2019-04-05T10:02:10.841Z,93.34
2019-04-05T10:04:39.594Z,92.29
2019-04-05T10:07:08.816Z,88.24
2019-04-05T10:09:37.459Z,86.13
2019-04-05T10:12:06.183Z,85.94
2019-04-05T10:14:35.085Z,79.92
2019-04-05T10:17:03.694Z,78.00
2019-04-05T10:19:32.327Z,76.37
2019-04-05T10:22:01.381Z,71.47
2019-04-05T10:24:33.117Z,68.67
2019-04-05T10:27:01.513Z,69.84
2019-04-05T10:29:31.214Z,69.98
2019-04-05T10:32:00.774Z,72.26
2019-04-05T10:34:29.492Z,87.05
2019-04-05T10:36:58.136Z,87.10
2019-04-05T10:39:27.860Z,90.60
2019-04-05T10:42:03.400Z,90.55
2019-04-05T10:44:26.836Z,86.40
2019-04-05T10:46:55.484Z,80.35
2019-04-05T10:49:24.120Z,78.12
2019-04-05T10:51:53.066Z,77.88
2019-04-05T10:54:21.776Z,74.25
2019-04-05T10:56:50.412Z,73.87
2019-04-05T10:59:19.048Z,65.37
2019-04-05T11:01:47.699Z,62.86
2019-04-05T11:04:16.882Z,59.39
2019-04-05T11:06:46.611Z,53.75
2019-04-05T11:09:15.259Z,46.42
2019-04-05T11:11:43.893Z,39.83
2019-04-05T11:14:13.981Z,36.47
2019-04-05T11:16:43.069Z,35.11
2019-04-05T11:19:11.719Z,36.48
2019-04-05T11:21:40.363Z,37.80
2019-04-05T11:24:09.029Z,37.58
2019-04-05T11:26:37.671Z,38.13
2019-04-05T11:29:06.389Z,37.77
2019-04-05T11:31:35.506Z,37.45
2019-04-05T11:34:04.181Z,39.29
2019-04-05T11:36:32.803Z,38.83
2019-04-05T11:39:01.464Z,41.08
2019-04-05T11:41:31.970Z,41.11
2019-04-05T11:44:01.353Z,41.92
2019-04-05T11:46:30.142Z,41.47
2019-04-05T11:48:58.815Z,35.01
2019-04-05T11:51:27.468Z,31.58
2019-04-05T11:53:56.104Z,28.53
2019-04-05T11:56:24.748Z,27.06
2019-04-05T11:58:53.507Z,26.71
2019-04-05T12:01:24.957Z,27.35
2019-04-05T12:03:53.599Z,27.12
2019-04-05T12:06:22.236Z,27.79
2019-04-05T12:08:50.872Z,26.49
2019-04-05T12:11:19.519Z,25.05
2019-04-05T12:13:48.499Z,23.36
2019-04-05T12:16:17.215Z,21.20
2019-04-05T12:18:45.856Z,22.43
2019-04-05T12:21:14.496Z,20.53
2019-04-05T12:23:43.131Z,20.45
2019-04-05T12:26:11.788Z,19.85
2019-04-05T12:28:41.494Z,17.97
2019-04-05T12:31:10.456Z,17.05
2019-04-05T12:33:39.123Z,16.09
2019-04-05T12:36:07.847Z,14.83
2019-04-05T12:38:36.486Z,13.30
2019-04-05T12:41:05.989Z,12.72
2019-04-05T12:43:34.618Z,13.22
2019-04-05T12:46:03.548Z,13.35
2019-04-05T12:48:32.196Z,13.82
2019-04-05T12:51:02.145Z,13.67
2019-04-05T12:53:32.173Z,13.60
2019-04-05T12:56:00.908Z,13.21
2019-04-05T12:58:32.548Z,13.17
2019-04-05T13:01:00.044Z,12.58
2019-04-05T13:03:28.665Z,11.90
2019-04-05T13:05:57.408Z,12.00
2019-04-05T13:08:26.202Z,12.08
2019-04-05T13:10:55.810Z,11.92
2019-04-05T13:13:27.467Z,11.63
2019-04-05T13:15:55.736Z,11.83
2019-04-05T13:18:25.346Z,11.89
2019-04-05T13:20:54.115Z,12.44
2019-04-05T13:23:22.758Z,11.94
2019-04-05T13:25:51.437Z,12.16
2019-04-05T13:28:20.087Z,11.67
2019-04-05T13:30:49.392Z,11.92
2019-04-05T13:33:18.103Z,11.48
2019-04-05T13:35:46.825Z,12.16
2019-04-05T13:38:15.466Z,12.95
2019-04-05T13:40:44.196Z,12.37
2019-04-05T13:43:12.826Z,11.94
2019-04-05T13:45:41.468Z,11.76
2019-04-05T13:48:10.403Z,11.70
2019-04-05T13:50:41.393Z,11.21
2019-04-05T13:53:11.446Z,11.49
2019-04-05T13:55:40.777Z,11.81
2019-04-05T13:58:11.202Z,12.06
2019-04-05T14:00:40.832Z,11.42
2019-04-05T14:03:09.468Z,11.32
2019-04-05T14:05:38.126Z,10.92
2019-04-05T14:08:10.254Z,11.55
2019-04-05T14:10:37.124Z,10.94
2019-04-05T14:13:07.618Z,10.22
2019-04-05T14:15:37.217Z,10.20
2019-04-05T14:18:07.116Z,11.21
2019-04-05T14:20:35.846Z,11.53
2019-04-05T14:23:04.561Z,11.34
2019-04-05T14:25:33.213Z,11.24
2019-04-05T14:28:04.291Z,11.71
2019-04-05T14:30:33.067Z,13.58
2019-04-05T14:33:02.504Z,15.06
2019-04-05T14:35:31.139Z,15.46
2019-04-05T14:37:59.791Z,15.46
2019-04-05T14:40:30.357Z,15.19
2019-04-05T14:42:58.811Z,15.30
2019-04-05T14:45:27.699Z,15.37
2019-04-05T14:47:58.441Z,15.69
2019-04-05T14:50:28.230Z,14.87
2019-04-05T14:53:00.945Z,14.49
2019-04-05T14:55:29.942Z,13.42
2019-04-05T14:57:58.505Z,13.40
2019-04-05T15:00:27.232Z,13.91
2019-04-05T15:02:55.953Z,14.18
2019-04-05T15:05:24.598Z,16.43
2019-04-05T15:07:54.993Z,18.58
2019-04-05T15:10:25.374Z,20.36
2019-04-05T15:12:53.904Z,22.12
2019-04-05T15:15:22.540Z,22.24
2019-04-05T15:17:51.248Z,23.82
2019-04-05T15:20:20.002Z,25.24
2019-04-05T15:22:48.712Z,26.04
2019-04-05T15:25:21.255Z,26.79
2019-04-05T15:27:51.722Z,28.59
2019-04-05T15:30:19.381Z,33.11
2019-04-05T15:32:48.095Z,29.62
2019-04-05T15:35:16.851Z,29.93
2019-04-05T15:37:45.489Z,30.97
2019-04-05T15:40:14.340Z,34.29
2019-04-05T15:42:43.007Z,36.36
2019-04-05T15:45:15.865Z,38.85
2019-04-05T15:47:42.822Z,40.27
2019-04-05T15:50:11.529Z,45.59
2019-04-05T15:52:41.100Z,51.71
2019-04-05T15:55:09.903Z,53.97
2019-04-05T15:57:39.543Z,54.78
2019-04-05T16:00:10.679Z,61.39
2019-04-05T16:02:39.375Z,66.57
2019-04-05T16:05:08.464Z,67.23
2019-04-05T16:07:37.476Z,64.88
2019-04-05T16:10:06.423Z,65.59
2019-04-05T16:12:35.216Z,66.33
2019-04-05T16:15:03.990Z,61.68
2019-04-05T16:17:32.996Z,58.74
2019-04-05T16:20:03.003Z,55.44
2019-04-05T16:22:31.820Z,52.63
2019-04-05T16:25:03.533Z,56.44
2019-04-05T16:27:31.139Z,56.28
2019-04-05T16:29:59.792Z,58.05
2019-04-05T16:32:29.591Z,59.62
2019-04-05T16:34:58.332Z,62.27
2019-04-05T16:37:26.975Z,57.37
2019-04-05T16:39:55.620Z,55.62
2019-04-05T16:42:24.279Z,61.05
2019-04-05T16:44:52.925Z,71.46
2019-04-05T16:47:21.555Z,81.06
2019-04-05T16:49:50.231Z,86.57
2019-04-05T16:52:21.859Z,90.57
2019-04-05T16:54:50.522Z,91.29
2019-04-05T16:57:19.151Z,93.71
2019-04-05T16:59:47.787Z,97.81
2019-04-05T17:02:16.455Z,100.00
2019-04-05T17:04:45.087Z,100.00
2019-04-05T17:07:13.736Z,100.00
2019-04-05T17:09:43.465Z,100.00
2019-04-05T17:12:12.112Z,100.00
2019-04-05T17:14:40.867Z,100.00
2019-04-05T17:17:09.620Z,100.00
2019-04-05T17:19:38.283Z,100.00
2019-04-05T17:22:06.932Z,100.00
2019-04-05T17:24:35.608Z,100.00
2019-04-05T17:27:04.352Z,100.00
2019-04-05T17:29:33.019Z,100.00
2019-04-05T17:32:01.679Z,100.00
2019-04-05T17:34:30.335Z,100.00
2019-04-05T17:36:58.984Z,100.00
2019-04-05T17:39:27.646Z,100.00
2019-04-05T17:41:56.407Z,100.00
2019-04-05T17:44:25.121Z,100.00
2019-04-05T17:46:53.905Z,100.00
2019-04-05T17:49:22.555Z,100.00
2019-04-05T17:51:51.195Z,100.00
2019-04-05T17:54:20.265Z,100.00
2019-04-05T17:56:50.443Z,100.00
2019-04-05T17:59:19.098Z,100.00
2019-04-05T18:01:47.769Z,100.00
2019-04-05T18:04:16.490Z,100.00
2019-04-05T18:06:45.158Z,100.00
2019-04-05T18:09:13.903Z,100.00
2019-04-05T18:11:42.662Z,100.00
2019-04-05T18:14:11.758Z,100.00
2019-04-05T18:16:40.466Z,100.00
2019-04-05T18:19:09.538Z,100.00
2019-04-05T18:21:38.406Z,100.00
2019-04-05T18:24:08.680Z,100.00
2019-04-05T18:26:37.398Z,100.00
2019-04-05T18:29:06.047Z,100.00
2019-04-05T18:31:34.692Z,100.00
2019-04-05T18:34:03.336Z,100.00
2019-04-05T18:36:31.983Z,100.00
2019-04-05T18:39:00.647Z,100.00
2019-04-05T18:41:30.940Z,100.00
2019-04-05T18:44:00.651Z,100.00
2019-04-05T18:46:29.415Z,100.00
2019-04-05T18:48:58.063Z,100.00
2019-04-05T18:51:26.792Z,100.00
2019-04-05T18:53:56.431Z,100.00
2019-04-05T18:56:25.187Z,100.00
2019-04-05T18:58:53.845Z,100.00
2019-04-05T19:01:22.586Z,100.00
2019-04-05T19:03:51.253Z,100.00
2019-04-05T19:06:19.987Z,100.00
2019-04-05T19:08:48.649Z,100.00
2019-04-05T19:11:17.417Z,100.00
2019-04-05T19:13:46.087Z,100.00
2019-04-05T19:16:14.831Z,100.00
2019-04-05T19:18:43.549Z,100.00
2019-04-05T19:21:12.281Z,100.00
2019-04-05T19:23:50.864Z,100.00
2019-04-05T19:26:11.519Z,100.00
2019-04-05T19:28:40.524Z,100.00
2019-04-05T19:48:43.736Z,100.00
2019-04-05T19:51:13.557Z,100.00
2019-04-05T19:53:42.208Z,100.00
2019-04-05T19:56:10.867Z,100.00
2019-04-05T19:58:39.584Z,100.00
2019-04-05T20:01:08.971Z,100.00
2019-04-05T20:03:37.731Z,100.00
2019-04-05T20:06:07.877Z,100.00
2019-04-05T20:08:36.899Z,100.00
2019-04-05T20:11:05.620Z,100.00
2019-04-05T20:13:34.271Z,100.00
2019-04-05T20:16:02.930Z,100.00
2019-04-05T20:18:31.951Z,100.00
2019-04-05T20:21:00.606Z,100.00
2019-04-05T20:23:29.370Z,100.00
2019-04-05T20:25:58.112Z,100.00
2019-04-05T20:28:27.087Z,100.00
2019-04-05T20:30:55.798Z,100.00
2019-04-05T20:33:24.471Z,100.00
2019-04-05T20:35:53.105Z,100.00
2019-04-05T20:38:21.776Z,100.00
2019-04-05T20:40:50.409Z,100.00
2019-04-05T20:43:19.064Z,100.00
2019-04-05T20:45:47.782Z,100.00
2019-04-05T20:48:16.527Z,100.00
2019-04-05T20:50:45.193Z,100.00
2019-04-05T20:53:13.859Z,100.00
2019-04-05T20:55:42.504Z,100.00
2019-04-05T20:58:11.181Z,100.00
2019-04-05T21:00:40.152Z,100.00
2019-04-05T21:03:09.754Z,100.00
2019-04-05T21:05:38.414Z,100.00
2019-04-05T21:08:07.171Z,100.00
2019-04-05T21:10:35.865Z,100.00
2019-04-05T21:13:04.633Z,100.00
2019-04-05T21:15:33.326Z,100.00
2019-04-05T21:18:02.019Z,100.00
2019-04-05T21:20:30.664Z,100.00
2019-04-05T21:22:59.410Z,100.00
2019-04-05T21:25:28.062Z,100.00
2019-04-05T21:27:56.748Z,100.00
2019-04-05T21:30:25.505Z,100.00
2019-04-05T21:32:55.312Z,100.00
2019-04-05T21:35:25.415Z,100.00
2019-04-05T21:37:54.066Z,100.00
2019-04-05T21:40:22.786Z,100.00
2019-04-05T21:42:51.468Z,100.00
2019-04-05T21:45:20.135Z,100.00
2019-04-05T21:47:48.852Z,100.00
2019-04-05T21:50:17.594Z,100.00
2019-04-05T21:52:46.251Z,100.00
2019-04-05T21:55:14.908Z,100.00
2019-04-05T21:57:43.597Z,100.00
2019-04-05T22:00:15.739Z,100.00
2019-04-05T22:02:46.043Z,100.00
2019-04-05T22:05:15.071Z,100.00
2019-04-05T22:07:43.787Z,100.00
2019-04-05T22:10:12.527Z,100.00
2019-04-05T22:12:41.178Z,100.00
2019-04-05T22:15:11.687Z,100.00
2019-04-05T22:17:40.343Z,100.00
2019-04-05T22:20:09.576Z,100.00
2019-04-05T22:22:38.254Z,100.00
2019-04-05T22:25:07.012Z,100.00
2019-04-05T22:27:35.695Z,100.00
2019-04-05T22:30:04.996Z,100.00
2019-04-05T22:32:33.723Z,100.00
2019-04-05T22:35:02.447Z,100.00
2019-04-05T22:37:31.091Z,100.00
2019-04-05T22:39:59.739Z,100.00
2019-04-05T22:42:28.417Z,100.00
2019-04-05T22:44:57.149Z,100.00
2019-04-05T22:47:25.908Z,100.00
2019-04-05T22:49:55.623Z,100.00
2019-04-05T22:52:24.352Z,100.00
2019-04-05T22:54:52.996Z,100.00
2019-04-05T22:57:21.636Z,100.00
2019-04-05T22:59:50.398Z,100.00
2019-04-05T23:02:19.052Z,100.00
2019-04-05T23:04:48.121Z,100.00
2019-04-05T23:07:17.140Z,100.00
2019-04-05T23:09:45.809Z,100.00
2019-04-05T23:12:14.487Z,100.00
2019-04-05T23:14:43.297Z,100.00
2019-04-05T23:17:13.359Z,100.00
2019-04-05T23:19:42.023Z,100.00
2019-04-05T23:22:10.697Z,100.00
2019-04-05T23:24:39.334Z,100.00
2019-04-05T23:27:08.054Z,100.00
2019-04-05T23:29:36.783Z,100.00
2019-04-05T23:32:05.555Z,100.00
2019-04-05T23:34:34.215Z,100.00
2019-04-05T23:37:02.892Z,100.00
2019-04-05T23:39:31.535Z,100.00
2019-04-05T23:42:00.188Z,100.00
2019-04-05T23:44:28.869Z,100.00
2019-04-05T23:46:57.522Z,100.00
2019-04-05T23:49:26.642Z,100.00
2019-04-05T23:51:55.328Z,100.00
2019-04-05T23:54:23.973Z,100.00
2019-04-05T23:56:52.718Z,100.00
2019-04-05T23:59:21.409Z,100.00
